Time;durP1;ratioP1;P1;durP2;ratioP2;P2;SDS_P1;SDS_P2;PMS_P1;PMS_P2;Temp;Humidity;BMP_temperature;BMP_pressure;BME280_temperature;BME280_humidity;BME280_pressure;Samples;Min_cycle;Max_cycle;Signal;HPM_P1;HPM_P2
2023/01/05 00:00:52;;;;;;;9.20;2.33;;;19.80;60.20;;;;;;5068203;28;20424;-62
2023/01/05 00:03:18;;;;;;;9.82;2.60;;;19.80;60.20;;;;;;5073214;28;20551;-62
2023/01/05 00:05:44;;;;;;;10.82;2.13;;;19.80;60.20;;;;;;5074712;28;20174;-61
2023/01/05 00:08:09;;;;;;;8.75;2.28;;;19.80;60.20;;;;;;5074158;28;20044;-62
2023/01/05 00:24:26;;;;;;;9.77;2.47;;;19.70;60.10;;;;;;5072967;28;20060;-61
2023/01/05 00:26:51;;;;;;;8.73;2.35;;;19.70;60.10;;;;;;5074165;28;20037;-61
2023/01/05 00:29:17;;;;;;;11.65;2.75;;;19.70;60.10;;;;;;5072376;28;20494;-61
2023/01/05 00:31:42;;;;;;;8.02;2.30;;;19.70;60.10;;;;;;5073384;28;20113;-61
2023/01/05 00:34:08;;;;;;;8.23;2.47;;;19.60;60.10;;;;;;5074156;28;20054;-61
2023/01/05 00:36:33;;;;;;;9.60;2.10;;;19.60;60.20;;;;;;5073521;28;20041;-61
2023/01/05 00:38:59;;;;;;;9.32;2.50;;;19.60;60.00;;;;;;5073061;28;20045;-61
2023/01/05 00:41:24;;;;;;;10.73;3.13;;;19.60;60.00;;;;;;5073364;28;20060;-61
2023/01/05 00:43:50;;;;;;;10.35;2.60;;;19.60;60.00;;;;;;5073601;28;20094;-61
2023/01/05 00:46:16;;;;;;;11.57;2.90;;;19.60;60.00;;;;;;5071358;28;20395;-61
2023/01/05 00:48:41;;;;;;;9.45;3.20;;;19.60;60.00;;;;;;5073682;28;20036;-61
2023/01/05 00:51:07;;;;;;;10.55;2.50;;;19.60;60.00;;;;;;5072856;28;20404;-61
2023/01/05 00:53:32;;;;;;;9.13;2.47;;;19.60;60.00;;;;;;5073424;28;20044;-61
2023/01/05 00:55:58;;;;;;;10.10;2.85;;;19.60;60.00;;;;;;5071827;28;20059;-61
2023/01/05 00:58:23;;;;;;;11.52;2.60;;;19.60;60.00;;;;;;5072568;28;20044;-61
2023/01/05 01:00:49;;;;;;;9.50;2.45;;;19.60;60.00;;;;;;5068327;28;20044;-61
2023/01/05 01:03:15;;;;;;;9.98;2.72;;;19.60;60.00;;;;;;5073016;28;20056;-61
2023/01/05 01:05:40;;;;;;;10.68;2.90;;;19.60;60.00;;;;;;5072270;28;20150;-61
2023/01/05 01:08:06;;;;;;;11.50;2.47;;;19.50;59.90;;;;;;5073560;28;20090;-61
2023/01/05 01:10:31;;;;;;;10.73;2.45;;;19.60;59.90;;;;;;5072949;28;20090;-61
2023/01/05 01:12:57;;;;;;;7.85;2.25;;;19.50;59.90;;;;;;5072510;28;20052;-61
2023/01/05 01:15:22;;;;;;;9.13;2.42;;;19.50;59.90;;;;;;5072612;28;20048;-61
2023/01/05 01:17:48;;;;;;;8.73;2.58;;;19.50;59.80;;;;;;5073060;28;20051;-61
2023/01/05 01:20:13;;;;;;;11.30;3.10;;;19.50;59.80;;;;;;5072096;28;20044;-61
2023/01/05 01:22:39;;;;;;;11.15;2.85;;;19.50;59.80;;;;;;5072815;28;20040;-61
2023/01/05 01:25:05;;;;;;;10.60;2.65;;;19.50;59.90;;;;;;5073136;28;20131;-61
2023/01/05 01:27:31;;;;;;;13.07;3.13;;;19.50;59.90;;;;;;5071412;28;20083;-61
2023/01/05 01:29:56;;;;;;;8.00;2.25;;;19.50;59.80;;;;;;5072911;28;20040;-61
2023/01/05 01:32:23;;;;;;;10.18;2.65;;;19.50;59.80;;;;;;5072696;28;20041;-61
2023/01/05 01:34:49;;;;;;;10.63;2.30;;;19.50;59.80;;;;;;5072042;28;20499;-61
2023/01/05 01:37:15;;;;;;;9.80;2.50;;;19.50;59.80;;;;;;5072483;28;20040;-60
2023/01/05 01:39:40;;;;;;;10.07;2.85;;;19.50;59.80;;;;;;5072697;28;20488;-61
2023/01/05 01:42:14;;;;;;;11.27;2.47;;;19.40;59.80;;;;;;5071936;28;20041;-61
2023/01/05 01:44:46;;;;;;;11.02;2.42;;;19.40;59.70;;;;;;5071159;28;20537;-61
2023/01/05 01:47:19;;;;;;;9.13;2.38;;;19.40;59.70;;;;;;5071204;28;20052;-61
2023/01/05 01:49:45;;;;;;;8.02;2.20;;;19.40;59.80;;;;;;5072560;28;20040;-61
2023/01/05 01:52:10;;;;;;;8.55;2.20;;;19.40;59.80;;;;;;5072153;28;20043;-61
2023/01/05 01:54:36;;;;;;;12.15;2.55;;;19.40;59.80;;;;;;5070858;28;20048;-61
2023/01/05 01:57:02;;;;;;;8.25;2.53;;;19.40;59.80;;;;;;5071131;28;20492;-61
2023/01/05 01:59:27;;;;;;;10.32;2.55;;;19.40;60.30;;;;;;5070732;28;20411;-61
2023/01/05 02:01:54;;;;;;;10.60;2.58;;;19.40;59.70;;;;;;5070514;28;20056;-61
2023/01/05 02:04:19;;;;;;;11.10;2.67;;;19.40;59.70;;;;;;5070859;28;20445;-60
2023/01/05 02:06:45;;;;;;;10.30;2.58;;;19.40;59.70;;;;;;5065639;28;20052;-60
2023/01/05 02:09:10;;;;;;;12.90;2.90;;;19.40;59.70;;;;;;5071170;28;20063;-60
2023/01/05 02:12:05;;;;;;;9.27;2.58;;;19.40;59.60;;;;;;5072044;28;20123;-60
2023/01/05 02:14:40;;;;;;;8.05;2.03;;;19.40;59.60;;;;;;5071195;28;20044;-60
2023/01/05 02:17:21;;;;;;;10.00;2.40;;;19.40;59.60;;;;;;5037524;28;20045;-60
2023/01/05 02:20:24;;;;;;;9.65;2.65;;;19.30;59.50;;;;;;5052263;28;20040;-60
2023/01/05 02:23:14;;;;;;;10.48;2.22;;;19.40;59.60;;;;;;5033915;28;20200;-60
2023/01/05 02:26:11;;;;;;;10.40;2.38;;;19.30;59.60;;;;;;5050643;28;20117;-61
2023/01/05 02:28:36;;;;;;;9.33;2.47;;;19.30;59.50;;;;;;5047885;28;20084;-60
2023/01/05 02:31:20;;;;;;;8.43;2.22;;;19.30;59.60;;;;;;5065333;28;20546;-60
2023/01/05 02:33:59;;;;;;;11.35;2.72;;;19.30;59.60;;;;;;5070719;28;20083;-60
2023/01/05 02:36:30;;;;;;;9.95;2.30;;;19.30;59.50;;;;;;5071908;28;20091;-60
2023/01/05 02:39:10;;;;;;;9.63;2.80;;;19.30;59.50;;;;;;5070924;28;20105;-60
2023/01/05 02:41:37;;;;;;;7.20;1.98;;;19.30;59.50;;;;;;5070800;28;20070;-60
2023/01/05 02:44:03;;;;;;;8.63;2.85;;;19.30;59.50;;;;;;5070937;28;20519;-60
2023/01/05 02:46:29;;;;;;;9.15;2.47;;;19.30;59.50;;;;;;5071386;28;20041;-60
2023/01/05 02:48:55;;;;;;;10.60;2.83;;;19.30;59.50;;;;;;5071914;28;20451;-60
2023/01/05 02:51:23;;;;;;;8.25;2.05;;;19.30;59.60;;;;;;5069677;28;20137;-60
2023/01/05 02:53:52;;;;;;;9.85;3.05;;;19.30;59.50;;;;;;5070957;28;20040;-60
2023/01/05 02:56:21;;;;;;;8.82;2.50;;;19.30;59.50;;;;;;5071737;28;20066;-60
2023/01/05 02:58:51;;;;;;;6.50;2.05;;;19.20;59.40;;;;;;5070543;28;20044;-60
2023/01/05 03:01:24;;;;;;;9.25;2.22;;;19.20;59.50;;;;;;5064600;28;20059;-60
2023/01/05 03:03:52;;;;;;;7.63;2.30;;;19.30;59.50;;;;;;5054219;28;20064;-60
2023/01/05 03:06:45;;;;;;;7.63;2.58;;;19.20;59.40;;;;;;5052915;28;20051;-60
2023/01/05 03:09:11;;;;;;;8.68;1.90;;;19.20;59.30;;;;;;5053409;28;20420;-60
2023/01/05 03:14:31;;;;;;;9.05;2.10;;;19.20;59.30;;;;;;5053763;28;20057;-61
2023/01/05 03:16:56;;;;;;;9.75;2.30;;;19.20;59.40;;;;;;5054175;28;20182;-60
2023/01/05 03:19:40;;;;;;;8.32;2.40;;;19.20;59.40;;;;;;5036397;28;20132;-60
2023/01/05 03:36:11;;;;;;;9.57;1.90;;;19.20;59.30;;;;;;5073753;28;20049;-60
2023/01/05 03:38:40;;;;;;;9.85;2.53;;;19.10;59.20;;;;;;5073500;28;20045;-61
2023/01/05 03:41:07;;;;;;;9.00;2.13;;;19.20;59.30;;;;;;5073318;28;20072;-61
2023/01/05 03:43:34;;;;;;;10.13;2.35;;;19.20;59.30;;;;;;5073068;28;20100;-61
2023/01/05 03:46:00;;;;;;;7.05;1.95;;;19.20;59.30;;;;;;5068388;28;20051;-61
2023/01/05 03:48:26;;;;;;;9.50;2.35;;;19.20;59.30;;;;;;5073492;28;20041;-61
2023/01/05 03:50:52;;;;;;;8.27;2.38;;;19.20;59.30;;;;;;5073890;28;20044;-61
2023/01/05 03:53:17;;;;;;;10.27;2.33;;;19.20;59.30;;;;;;5074634;28;20051;-61
2023/01/05 03:55:43;;;;;;;8.57;2.10;;;19.20;59.30;;;;;;5074285;28;20043;-61
2023/01/05 03:58:08;;;;;;;9.50;2.53;;;19.20;59.20;;;;;;5074607;28;20458;-61
2023/01/05 04:00:34;;;;;;;9.55;2.35;;;19.20;59.20;;;;;;5074707;28;20044;-61
2023/01/05 04:03:00;;;;;;;9.77;2.33;;;19.30;59.20;;;;;;5074057;28;20044;-63
2023/01/05 04:05:25;;;;;;;8.68;1.70;;;19.30;59.20;;;;;;5074486;28;20044;-61
2023/01/05 04:07:51;;;;;;;8.38;1.83;;;19.30;59.10;;;;;;5074380;28;20032;-61
2023/01/05 04:10:16;;;;;;;8.57;1.95;;;19.30;59.10;;;;;;5072441;28;20507;-61
2023/01/05 04:12:42;;;;;;;8.40;2.38;;;19.30;59.10;;;;;;5074385;28;20548;-61
2023/01/05 04:15:08;;;;;;;9.48;2.40;;;19.30;59.10;;;;;;5073365;28;20055;-61
2023/01/05 04:17:34;;;;;;;8.15;2.03;;;19.40;59.10;;;;;;5074333;28;20044;-61
2023/01/05 04:20:00;;;;;;;7.65;1.80;;;19.30;59.00;;;;;;5073178;28;20041;-61
2023/01/05 04:22:25;;;;;;;8.32;2.00;;;19.40;59.00;;;;;;5072950;28;20182;-61
2023/01/05 04:24:51;;;;;;;7.05;1.92;;;19.40;59.00;;;;;;5074502;28;20040;-61
2023/01/05 04:27:16;;;;;;;9.25;2.00;;;19.40;59.00;;;;;;5073639;28;20036;-61
2023/01/05 04:29:42;;;;;;;9.98;2.33;;;19.40;59.00;;;;;;5073660;28;20098;-61
2023/01/05 04:32:07;;;;;;;6.63;1.70;;;19.40;59.00;;;;;;5072679;28;20114;-61
2023/01/05 04:34:33;;;;;;;8.95;2.03;;;19.50;59.00;;;;;;5073638;28;20048;-61
2023/01/05 04:36:58;;;;;;;10.15;2.00;;;19.50;59.00;;;;;;5073201;28;20127;-61
2023/01/05 04:39:24;;;;;;;8.65;1.83;;;19.50;59.00;;;;;;5073869;28;20051;-61
2023/01/05 04:41:49;;;;;;;9.13;2.10;;;19.50;59.00;;;;;;5074126;28;20044;-61
2023/01/05 04:44:15;;;;;;;7.00;1.67;;;19.50;58.90;;;;;;5072668;28;20071;-61
2023/01/05 04:46:41;;;;;;;9.63;2.05;;;19.60;59.00;;;;;;5073730;28;20037;-61
2023/01/05 04:49:06;;;;;;;9.52;2.50;;;19.60;58.90;;;;;;5073725;28;20503;-61
2023/01/05 04:51:32;;;;;;;9.10;2.17;;;19.60;58.90;;;;;;5071275;28;20696;-61
2023/01/05 04:53:57;;;;;;;7.55;1.58;;;19.60;58.90;;;;;;5073597;28;20119;-61
2023/01/05 04:56:23;;;;;;;7.60;1.85;;;19.60;58.90;;;;;;5073410;28;20044;-61
2023/01/05 04:58:48;;;;;;;6.75;1.67;;;19.60;58.90;;;;;;5072776;28;20094;-61
2023/01/05 05:01:14;;;;;;;8.05;2.08;;;19.70;58.90;;;;;;5067657;28;20041;-61
2023/01/05 05:03:39;;;;;;;8.10;1.70;;;19.70;58.90;;;;;;5036757;28;20734;-61
2023/01/05 05:06:05;;;;;;;7.90;1.92;;;19.70;58.90;;;;;;5031625;28;20046;-61
2023/01/05 05:08:31;;;;;;;6.93;1.88;;;19.70;59.50;;;;;;5032420;28;20128;-62
2023/01/05 05:10:56;;;;;;;7.43;1.90;;;19.70;58.80;;;;;;5033353;28;20050;-61
2023/01/05 05:13:22;;;;;;;6.28;1.77;;;19.70;58.80;;;;;;5031817;28;20451;-61
2023/01/05 05:15:47;;;;;;;8.23;1.88;;;19.70;58.70;;;;;;5033183;28;20136;-61
2023/01/05 05:18:13;;;;;;;8.60;2.03;;;19.70;58.70;;;;;;5031489;28;20080;-61
2023/01/05 05:20:41;;;;;;;7.38;1.70;;;19.70;58.70;;;;;;5032610;28;20120;-62
2023/01/05 05:23:06;;;;;;;7.28;1.92;;;19.80;58.80;;;;;;5033282;28;20088;-61
2023/01/05 05:25:32;;;;;;;7.07;2.10;;;19.80;58.80;;;;;;5031840;28;20077;-62
2023/01/05 05:27:57;;;;;;;6.32;1.50;;;19.80;58.70;;;;;;5033036;28;20045;-62
2023/01/05 05:30:23;;;;;;;8.23;1.95;;;19.80;58.70;;;;;;5031838;28;20057;-62
2023/01/05 05:32:49;;;;;;;9.25;1.60;;;19.80;58.70;;;;;;5032276;28;20049;-62
2023/01/05 05:35:14;;;;;;;8.30;1.80;;;19.80;58.80;;;;;;5031430;28;20059;-61
2023/01/05 05:37:40;;;;;;;7.07;1.90;;;19.80;58.70;;;;;;5033153;28;20037;-62
2023/01/05 05:40:06;;;;;;;8.07;1.55;;;19.80;58.80;;;;;;5032392;28;20045;-61
2023/01/05 05:42:31;;;;;;;7.75;1.73;;;19.80;58.70;;;;;;5032758;28;20041;-61
2023/01/05 05:44:57;;;;;;;7.97;1.70;;;19.80;58.70;;;;;;5032493;28;20049;-61
2023/01/05 05:47:22;;;;;;;10.00;1.98;;;19.80;58.70;;;;;;5031927;28;20158;-61
2023/01/05 05:49:48;;;;;;;8.18;1.75;;;19.90;58.70;;;;;;5032695;28;20516;-61
2023/01/05 05:52:13;;;;;;;6.93;1.40;;;19.90;58.70;;;;;;5032568;28;20748;-61
2023/01/05 05:54:39;;;;;;;6.47;1.75;;;19.90;58.70;;;;;;5032172;28;20067;-61
2023/01/05 05:57:05;;;;;;;10.48;1.75;;;19.90;58.70;;;;;;5032475;28;20420;-61
2023/01/05 05:59:30;;;;;;;5.28;1.63;;;19.90;58.70;;;;;;5032429;28;20164;-60
2023/01/05 06:01:56;;;;;;;6.85;1.60;;;19.90;58.70;;;;;;5032048;28;20126;-61
2023/01/05 06:04:21;;;;;;;6.90;1.73;;;19.90;58.70;;;;;;5032222;28;20053;-60
2023/01/05 06:06:47;;;;;;;7.28;1.48;;;19.90;58.70;;;;;;5032391;28;20143;-61
2023/01/05 06:09:12;;;;;;;4.95;1.42;;;19.90;58.70;;;;;;5026349;28;20052;-60
2023/01/05 06:11:38;;;;;;;8.73;1.70;;;19.90;58.70;;;;;;5030800;28;20107;-60
2023/01/05 06:14:05;;;;;;;8.02;1.20;;;19.90;58.60;;;;;;5032214;28;20048;-61
2023/01/05 06:16:30;;;;;;;6.22;1.65;;;19.90;58.70;;;;;;5031442;28;20136;-61
2023/01/05 06:18:56;;;;;;;7.57;1.70;;;19.90;58.70;;;;;;5032210;28;20120;-60
2023/01/05 06:21:22;;;;;;;5.57;1.40;;;19.90;58.60;;;;;;5033816;28;20096;-61
2023/01/05 06:23:47;;;;;;;5.95;1.45;;;19.90;58.60;;;;;;5069952;28;20090;-60
2023/01/05 06:26:13;;;;;;;6.63;1.58;;;19.90;58.60;;;;;;5071976;28;20090;-61
2023/01/05 06:28:38;;;;;;;7.13;1.50;;;19.90;58.60;;;;;;5071249;28;20048;-60
2023/01/05 06:31:04;;;;;;;6.22;1.45;;;19.90;58.50;;;;;;5072156;28;20132;-61
2023/01/05 06:33:30;;;;;;;7.05;1.30;;;20.00;58.60;;;;;;5073374;28;20039;-61
2023/01/05 06:35:57;;;;;;;6.50;1.45;;;19.90;58.50;;;;;;5078197;28;20044;-61
2023/01/05 06:38:23;;;;;;;5.70;1.20;;;19.90;58.50;;;;;;5078563;28;20060;-61
2023/01/05 06:40:49;;;;;;;8.00;1.70;;;20.00;58.50;;;;;;5078454;28;20416;-61
2023/01/05 06:43:14;;;;;;;6.13;1.60;;;20.00;58.60;;;;;;5077653;28;20479;-61
2023/01/05 06:45:40;;;;;;;8.55;1.63;;;20.00;58.50;;;;;;5078859;28;20101;-61
2023/01/05 06:48:05;;;;;;;8.38;1.65;;;20.00;58.50;;;;;;5078406;28;20044;-61
2023/01/05 06:50:31;;;;;;;6.43;1.33;;;20.00;58.50;;;;;;5077775;28;20123;-61
2023/01/05 06:52:57;;;;;;;5.90;1.67;;;20.00;58.50;;;;;;5078584;28;20102;-61
2023/01/05 06:55:23;;;;;;;5.88;1.50;;;20.00;58.50;;;;;;5078426;28;20040;-61
2023/01/05 06:57:48;;;;;;;7.70;1.60;;;20.00;58.40;;;;;;5077633;28;20036;-61
2023/01/05 07:00:14;;;;;;;7.85;1.38;;;20.00;58.40;;;;;;5078286;28;20036;-61
2023/01/05 07:02:40;;;;;;;7.30;1.48;;;20.00;58.40;;;;;;5078704;28;20114;-62
2023/01/05 07:05:06;;;;;;;5.30;1.23;;;20.00;58.40;;;;;;5077845;28;20080;-61
2023/01/05 07:07:32;;;;;;;6.13;1.30;;;20.00;58.40;;;;;;5076851;28;20369;-62
2023/01/05 07:09:58;;;;;;;7.30;1.60;;;20.00;58.40;;;;;;5078474;28;20048;-61
2023/01/05 07:12:23;;;;;;;6.28;1.50;;;20.00;58.50;;;;;;5070758;28;20051;-61
2023/01/05 07:14:49;;;;;;;4.72;1.15;;;20.10;58.50;;;;;;5078124;28;20114;-62
2023/01/05 07:17:14;;;;;;;5.82;1.45;;;20.00;58.40;;;;;;5077882;28;20044;-62
2023/01/05 07:19:40;;;;;;;7.22;1.50;;;20.00;58.40;;;;;;5077726;28;20569;-60
2023/01/05 07:22:06;;;;;;;6.30;1.77;;;20.10;58.50;;;;;;5078273;28;20450;-61
2023/01/05 07:24:31;;;;;;;6.18;1.70;;;20.10;58.50;;;;;;5078221;28;20040;-61
2023/01/05 07:26:58;;;;;;;5.63;1.35;;;20.10;58.50;;;;;;5077084;28;20056;-60
2023/01/05 07:29:23;;;;;;;6.47;1.40;;;20.10;58.50;;;;;;5078008;28;20045;-61
2023/01/05 07:31:51;;;;;;;6.90;1.42;;;20.10;58.50;;;;;;5078157;28;20517;-60
2023/01/05 07:34:17;;;;;;;6.27;1.47;;;20.10;58.60;;;;;;5077615;28;20048;-60
2023/01/05 07:36:43;;;;;;;8.00;1.55;;;20.10;58.70;;;;;;5078331;28;20045;-60
2023/01/05 07:39:08;;;;;;;8.55;1.92;;;20.10;58.70;;;;;;5077489;28;20135;-60
2023/01/05 07:41:34;;;;;;;5.70;1.23;;;20.10;58.70;;;;;;5078432;28;20068;-60
2023/01/05 07:43:59;;;;;;;8.38;1.63;;;20.10;58.70;;;;;;5078077;28;20086;-60
2023/01/05 07:46:25;;;;;;;8.32;1.70;;;20.10;58.70;;;;;;5073099;28;20045;-60
2023/01/05 07:48:50;;;;;;;8.60;1.38;;;20.10;58.80;;;;;;5074666;28;20467;-60
2023/01/05 07:51:17;;;;;;;8.52;1.60;;;20.10;58.80;;;;;;5074569;28;20036;-60
2023/01/05 07:53:42;;;;;;;7.85;1.60;;;20.10;58.90;;;;;;5074323;28;20183;-60
2023/01/05 07:56:08;;;;;;;7.47;1.40;;;20.10;59.10;;;;;;5075047;28;20123;-60
2023/01/05 07:58:34;;;;;;;8.38;2.05;;;20.10;59.30;;;;;;5074965;28;20040;-61
2023/01/05 08:01:08;;;;;;;4.43;1.40;;;20.20;59.40;;;;;;5074168;28;20083;-60
2023/01/05 08:03:34;;;;;;;8.77;2.00;;;20.20;59.60;;;;;;5074699;28;20056;-61
2023/01/05 08:06:07;;;;;;;11.25;1.92;;;20.20;59.60;;;;;;5074834;28;20060;-59
2023/01/05 08:08:33;;;;;;;8.55;1.60;;;20.20;59.70;;;;;;5073614;28;20484;-60
2023/01/05 08:10:58;;;;;;;8.65;1.88;;;20.20;59.70;;;;;;5066910;28;20090;-61
2023/01/05 08:16:08;;;;;;;8.43;2.33;;;20.20;59.90;;;;;;5050585;28;20140;-64
2023/01/05 08:18:33;;;;;;;7.88;2.20;;;20.20;60.00;;;;;;5053698;28;20128;-64
2023/01/05 08:21:03;;;;;;;5.95;2.05;;;20.20;59.90;;;;;;5065964;28;20047;-61
2023/01/05 08:23:29;;;;;;;7.47;1.73;;;20.20;60.00;;;;;;5073560;28;20483;-60
2023/01/05 08:25:54;;;;;;;10.30;1.95;;;20.20;59.90;;;;;;5068893;28;20502;-61
2023/01/05 08:28:20;;;;;;;9.60;1.85;;;20.20;60.00;;;;;;5073007;28;20046;-61
2023/01/05 08:30:46;;;;;;;5.95;1.50;;;20.30;60.10;;;;;;5074343;28;20045;-61
2023/01/05 08:33:12;;;;;;;8.40;1.80;;;20.30;60.20;;;;;;5073884;28;20040;-61
2023/01/05 08:35:41;;;;;;;12.27;1.88;;;20.30;60.10;;;;;;5073422;28;20044;-61
2023/01/05 08:38:07;;;;;;;9.05;1.95;;;20.30;60.20;;;;;;5073152;28;20048;-60
2023/01/05 08:40:32;;;;;;;7.45;1.80;;;20.30;60.20;;;;;;5073618;28;20389;-61
2023/01/05 08:42:58;;;;;;;7.15;1.75;;;20.30;60.20;;;;;;5073067;28;20141;-60
2023/01/05 08:45:23;;;;;;;5.97;1.63;;;20.30;60.30;;;;;;5073688;28;20052;-60
2023/01/05 08:47:50;;;;;;;7.60;1.83;;;20.30;60.30;;;;;;5073949;28;20045;-60
2023/01/05 08:50:16;;;;;;;5.35;1.83;;;20.30;60.30;;;;;;5072882;28;20404;-60
2023/01/05 08:52:41;;;;;;;7.88;1.58;;;20.30;60.30;;;;;;5073553;28;20543;-60
2023/01/05 08:55:07;;;;;;;6.03;1.63;;;20.30;60.40;;;;;;5073341;28;20036;-60
2023/01/05 08:57:33;;;;;;;9.32;1.85;;;20.30;60.40;;;;;;5070808;28;20161;-60
2023/01/05 08:59:58;;;;;;;9.35;2.00;;;20.30;60.40;;;;;;5073513;28;20033;-62
2023/01/05 09:02:24;;;;;;;6.78;1.75;;;20.30;60.30;;;;;;5073530;28;20090;-60
2023/01/05 09:04:50;;;;;;;6.45;1.70;;;20.30;60.30;;;;;;5072973;28;20059;-59
2023/01/05 09:07:16;;;;;;;7.18;1.90;;;20.30;60.40;;;;;;5072930;28;20102;-60
2023/01/05 09:09:41;;;;;;;5.93;1.83;;;20.40;60.40;;;;;;5071963;28;20098;-60
2023/01/05 09:12:07;;;;;;;6.20;1.65;;;20.30;60.30;;;;;;5072752;28;20036;-60
2023/01/05 09:14:32;;;;;;;6.43;1.55;;;20.30;60.40;;;;;;5059507;28;20584;-59
2023/01/05 09:16:58;;;;;;;7.25;1.80;;;20.30;60.40;;;;;;5051969;28;20044;-59
2023/01/05 09:19:23;;;;;;;9.43;1.63;;;20.30;60.50;;;;;;5052251;28;20098;-59
2023/01/05 09:21:49;;;;;;;7.07;1.50;;;20.30;60.40;;;;;;5052171;28;20127;-60
2023/01/05 09:24:14;;;;;;;6.63;1.48;;;20.30;60.40;;;;;;5047796;28;20464;-59
2023/01/05 09:26:40;;;;;;;8.35;1.77;;;20.30;60.50;;;;;;5052407;28;20052;-59
2023/01/05 09:29:06;;;;;;;10.63;1.85;;;20.30;60.50;;;;;;5052983;28;20044;-59
2023/01/05 09:31:32;;;;;;;6.40;1.70;;;20.30;60.60;;;;;;5051755;28;20037;-59
2023/01/05 09:33:57;;;;;;;5.53;1.63;;;20.30;60.50;;;;;;5053200;28;20045;-60
2023/01/05 09:36:24;;;;;;;7.68;1.60;;;20.30;60.50;;;;;;5052276;28;20041;-60
2023/01/05 09:38:55;;;;;;;6.43;1.30;;;20.30;60.50;;;;;;5051002;28;20838;-60
2023/01/05 09:41:39;;;;;;;5.68;1.63;;;20.30;60.60;;;;;;5052751;28;20048;-60
2023/01/05 09:44:15;;;;;;;7.65;2.00;;;20.30;60.60;;;;;;5051720;28;20048;-60
2023/01/05 09:46:42;;;;;;;6.97;1.83;;;20.30;60.50;;;;;;5052219;28;20032;-60
2023/01/05 09:49:13;;;;;;;7.03;1.27;;;20.30;60.60;;;;;;5052879;28;20052;-60
2023/01/05 09:51:39;;;;;;;6.63;1.80;;;20.30;60.60;;;;;;5051500;28;20095;-60
2023/01/05 09:54:04;;;;;;;8.98;1.92;;;20.30;60.70;;;;;;5050737;28;20041;-60
2023/01/05 09:56:37;;;;;;;5.93;1.80;;;20.30;60.70;;;;;;5052514;28;20481;-60
2023/01/05 09:59:42;;;;;;;6.95;1.83;;;20.30;60.70;;;;;;5032829;28;20047;-59
2023/01/05 10:02:40;;;;;;;6.38;1.88;;;20.30;60.60;;;;;;5003899;28;20501;-59
2023/01/05 10:05:06;;;;;;;8.90;1.70;;;20.30;60.60;;;;;;5039316;28;20068;-60
2023/01/05 10:07:42;;;;;;;6.38;1.55;;;20.20;60.50;;;;;;5050526;28;20396;-60
2023/01/05 10:10:30;;;;;;;9.00;1.60;;;20.20;60.50;;;;;;5050589;28;20485;-60
2023/01/05 10:13:01;;;;;;;7.22;1.58;;;20.20;60.50;;;;;;5044270;28;20037;-59
2023/01/05 10:15:29;;;;;;;6.43;1.60;;;20.20;60.50;;;;;;5046287;28;20057;-60
2023/01/05 10:17:54;;;;;;;8.98;1.50;;;20.20;60.40;;;;;;5030762;28;20053;-60
2023/01/05 10:20:38;;;;;;;8.38;1.58;;;20.20;60.40;;;;;;5031284;28;20041;-59
2023/01/05 10:23:09;;;;;;;7.68;1.55;;;20.20;60.20;;;;;;5031071;28;20096;-60
2023/01/05 10:25:43;;;;;;;12.93;1.73;;;20.20;60.10;;;;;;5026310;28;20029;-59
2023/01/05 10:28:32;;;;;;;8.05;1.58;;;20.20;60.00;;;;;;5029418;28;20045;-59
2023/01/05 10:31:01;;;;;;;7.97;1.90;;;20.10;59.80;;;;;;5041640;28;20041;-59
2023/01/05 10:33:27;;;;;;;11.52;2.05;;;20.10;59.90;;;;;;5071582;28;20059;-59
2023/01/05 10:36:07;;;;;;;9.80;1.92;;;20.10;59.70;;;;;;5071135;28;20041;-59
2023/01/05 10:38:54;;;;;;;5.43;1.50;;;20.10;59.50;;;;;;5071863;28;20102;-59
2023/01/05 10:41:40;;;;;;;7.20;1.52;;;20.00;59.40;;;;;;5071112;28;20048;-59
2023/01/05 10:44:27;;;;;;;10.35;2.15;;;20.00;59.40;;;;;;5070004;28;20052;-60
2023/01/05 10:46:52;;;;;;;10.55;2.40;;;20.00;59.40;;;;;;5071163;28;20045;-59
2023/01/05 10:49:28;;;;;;;8.50;1.73;;;20.00;59.40;;;;;;5069670;28;20052;-59
2023/01/05 10:51:56;;;;;;;7.68;1.85;;;20.00;59.20;;;;;;5070609;28;20058;-59
2023/01/05 10:54:32;;;;;;;7.57;1.60;;;20.00;59.20;;;;;;5054085;28;20040;-60
2023/01/05 10:57:32;;;;;;;9.02;1.85;;;20.00;59.40;;;;;;5053262;28;20408;-59
2023/01/05 11:00:02;;;;;;;7.05;1.80;;;20.00;59.80;;;;;;5053729;28;20052;-60
2023/01/05 11:02:29;;;;;;;8.85;2.10;;;20.00;60.00;;;;;;5050997;28;20052;-60
2023/01/05 11:05:03;;;;;;;7.00;1.80;;;20.00;60.10;;;;;;5049500;28;20044;-59
2023/01/05 11:07:28;;;;;;;10.45;1.80;;;20.00;60.20;;;;;;5049857;28;20626;-59
2023/01/05 11:09:54;;;;;;;9.68;1.80;;;20.00;60.20;;;;;;5051093;28;20628;-59
2023/01/05 11:12:21;;;;;;;8.73;1.88;;;20.10;60.40;;;;;;5051083;28;20037;-61
2023/01/05 11:14:49;;;;;;;8.38;1.60;;;20.10;60.50;;;;;;5033511;28;20057;-59
2023/01/05 11:17:22;;;;;;;7.82;2.28;;;20.00;60.50;;;;;;5048753;28;20154;-60
2023/01/05 11:19:52;;;;;;;7.38;1.83;;;20.00;60.40;;;;;;5033979;28;20048;-60
2023/01/05 11:22:38;;;;;;;9.07;1.88;;;20.10;60.60;;;;;;5041266;28;20037;-60
2023/01/05 11:25:18;;;;;;;8.23;2.30;;;20.10;60.60;;;;;;5038613;28;20163;-62
2023/01/05 11:27:44;;;;;;;5.30;1.60;;;20.10;60.70;;;;;;5053088;28;20049;-60
2023/01/05 11:30:17;;;;;;;6.78;1.80;;;20.10;60.70;;;;;;5053100;28;20052;-60
2023/01/05 11:32:43;;;;;;;8.15;1.60;;;20.10;60.50;;;;;;5054212;28;20041;-60
2023/01/05 11:35:24;;;;;;;7.95;1.88;;;20.10;60.50;;;;;;5054550;28;20048;-60
2023/01/05 11:37:49;;;;;;;5.20;1.30;;;20.10;60.50;;;;;;5054129;28;20053;-60
2023/01/05 11:40:16;;;;;;;6.15;1.40;;;20.10;60.50;;;;;;5053830;28;20048;-59
2023/01/05 11:42:43;;;;;;;7.00;1.52;;;20.10;60.60;;;;;;5036804;28;20037;-59
2023/01/05 11:45:23;;;;;;;5.47;1.40;;;20.00;60.50;;;;;;5048524;28;20041;-60
2023/01/05 11:47:57;;;;;;;4.95;2.00;;;20.00;60.50;;;;;;5055116;28;20037;-60
2023/01/05 11:50:48;;;;;;;6.30;1.60;;;20.00;60.50;;;;;;5053439;28;20064;-60
2023/01/05 11:53:33;;;;;;;8.82;1.98;;;20.00;60.40;;;;;;5033283;28;20045;-60
2023/01/05 11:56:08;;;;;;;8.45;1.70;;;20.00;60.50;;;;;;5050488;28;20041;-61
2023/01/05 11:58:44;;;;;;;5.35;1.25;;;20.00;60.50;;;;;;5054038;28;20048;-60
2023/01/05 12:01:30;;;;;;;8.00;1.55;;;20.00;60.60;;;;;;5051484;28;20102;-60
2023/01/05 12:04:03;;;;;;;9.13;1.75;;;20.00;60.70;;;;;;5051710;28;20041;-60
2023/01/05 12:07:06;;;;;;;6.43;1.75;;;20.00;60.80;;;;;;5052590;28;20076;-59
2023/01/05 12:09:32;;;;;;;5.00;1.45;;;20.00;60.80;;;;;;5051539;28;20041;-60
2023/01/05 12:12:19;;;;;;;7.00;1.98;;;20.10;60.90;;;;;;5053304;28;20132;-60
2023/01/05 12:15:01;;;;;;;9.95;2.38;;;20.00;60.90;;;;;;5051036;28;20061;-59
2023/01/05 12:17:41;;;;;;;10.45;2.08;;;20.10;61.00;;;;;;5051561;28;20124;-60
2023/01/05 12:20:35;;;;;;;7.80;1.95;;;20.00;61.00;;;;;;5053600;28;20036;-60
2023/01/05 12:23:33;;;;;;;7.68;1.73;;;20.00;61.00;;;;;;5050758;28;20056;-60
2023/01/05 12:26:15;;;;;;;9.05;1.70;;;20.00;61.10;;;;;;5043507;28;20440;-60
2023/01/05 12:28:50;;;;;;;9.20;2.20;;;20.00;61.20;;;;;;5050408;28;20037;-59
2023/01/05 12:31:37;;;;;;;5.22;1.33;;;20.00;61.20;;;;;;5034835;28;20559;-60
2023/01/05 12:34:23;;;;;;;4.80;1.43;;;20.10;61.20;;;;;;5049005;28;20122;-61
2023/01/05 12:37:04;;;;;;;6.03;1.85;;;20.00;61.00;;;;;;5052304;28;20049;-60
2023/01/05 12:39:33;;;;;;;7.50;1.80;;;20.00;61.00;;;;;;5050713;28;20118;-61
2023/01/05 12:42:18;;;;;;;6.18;1.92;;;20.00;61.00;;;;;;5053203;28;20120;-61
2023/01/05 12:44:50;;;;;;;8.95;1.60;;;20.00;61.00;;;;;;5017191;28;20067;-61
2023/01/05 12:47:35;;;;;;;5.75;1.85;;;20.10;61.00;;;;;;5052606;28;20041;-61
2023/01/05 12:50:32;;;;;;;7.88;1.85;;;20.00;61.00;;;;;;5051713;28;20412;-61
2023/01/05 12:53:10;;;;;;;7.18;2.00;;;20.00;61.00;;;;;;5060311;28;20033;-61
2023/01/05 12:55:42;;;;;;;8.15;1.90;;;20.10;61.00;;;;;;5051834;28;20106;-61
2023/01/05 12:58:19;;;;;;;7.45;1.90;;;20.10;61.00;;;;;;5052528;28;20072;-60
2023/01/05 13:00:45;;;;;;;5.38;1.50;;;20.10;61.00;;;;;;5051484;28;20041;-60
2023/01/05 13:03:35;;;;;;;7.30;1.67;;;20.10;61.00;;;;;;5051836;28;20426;-60
2023/01/05 13:06:19;;;;;;;7.57;2.03;;;20.10;60.90;;;;;;5069734;28;20087;-60
2023/01/05 13:09:05;;;;;;;7.25;2.00;;;20.10;60.90;;;;;;5030362;28;20507;-60
2023/01/05 13:11:52;;;;;;;6.38;2.10;;;20.10;60.80;;;;;;5037781;28;20087;-60
2023/01/05 13:14:19;;;;;;;5.72;1.60;;;20.10;60.80;;;;;;5052005;28;20061;-60
2023/01/05 13:16:47;;;;;;;5.25;1.52;;;20.10;60.70;;;;;;5035461;28;20107;-60
2023/01/05 13:19:35;;;;;;;7.18;1.60;;;20.10;60.70;;;;;;5035632;28;20060;-60
2023/01/05 13:22:09;;;;;;;6.65;1.73;;;20.20;60.60;;;;;;5052455;28;20128;-60
2023/01/05 13:24:38;;;;;;;7.55;2.00;;;20.20;60.60;;;;;;5035909;28;20049;-60
2023/01/05 13:27:04;;;;;;;6.72;1.65;;;20.20;60.60;;;;;;5052652;28;20057;-61
2023/01/05 13:29:32;;;;;;;6.20;1.90;;;20.20;60.60;;;;;;5053092;28;20396;-58
2023/01/05 13:32:25;;;;;;;7.57;1.73;;;20.20;60.50;;;;;;5051535;28;20037;-58